sensor_id;sensor_type;location;lat;lon;timestamp;P1;durP1;ratioP1;P2;durP2;ratioP2
8803;SDS011;4438;50.890;4.726;2022-08-30T00:00:24;4.90;;;4.07;;
8803;SDS011;4438;50.890;4.726;2022-08-30T00:03:10;4.27;;;3.83;;
8803;SDS011;4438;50.890;4.726;2022-08-30T00:05:37;6.57;;;3.73;;
8803;SDS011;4438;50.890;4.726;2022-08-30T00:08:04;5.97;;;4.10;;
8803;SDS011;4438;50.890;4.726;2022-08-30T00:10:30;5.20;;;4.13;;
8803;SDS011;4438;50.890;4.726;2022-08-30T00:12:56;6.93;;;4.73;;
8803;SDS011;4438;50.890;4.726;2022-08-30T00:15:23;4.63;;;3.97;;
8803;SDS011;4438;50.890;4.726;2022-08-30T00:17:49;4.67;;;4.07;;
8803;SDS011;4438;50.890;4.726;2022-08-30T00:20:16;6.30;;;4.27;;
8803;SDS011;4438;50.890;4.726;2022-08-30T00:22:43;4.80;;;4.30;;
8803;SDS011;4438;50.890;4.726;2022-08-30T00:25:09;4.67;;;4.10;;
8803;SDS011;4438;50.890;4.726;2022-08-30T00:27:36;5.10;;;4.23;;
8803;SDS011;4438;50.890;4.726;2022-08-30T00:30:02;5.63;;;4.40;;
8803;SDS011;4438;50.890;4.726;2022-08-30T00:32:29;6.37;;;4.77;;
8803;SDS011;4438;50.890;4.726;2022-08-30T00:34:55;5.83;;;4.07;;
8803;SDS011;4438;50.890;4.726;2022-08-30T00:37:21;5.43;;;4.33;;
8803;SDS011;4438;50.890;4.726;2022-08-30T00:39:47;5.60;;;4.37;;
8803;SDS011;4438;50.890;4.726;2022-08-30T00:42:13;5.30;;;4.27;;
8803;SDS011;4438;50.890;4.726;2022-08-30T00:44:40;9.03;;;5.10;;
8803;SDS011;4438;50.890;4.726;2022-08-30T00:47:06;5.83;;;4.40;;
8803;SDS011;4438;50.890;4.726;2022-08-30T00:49:33;5.40;;;4.60;;
8803;SDS011;4438;50.890;4.726;2022-08-30T00:52:00;5.03;;;4.17;;
8803;SDS011;4438;50.890;4.726;2022-08-30T00:54:26;5.77;;;4.37;;
8803;SDS011;4438;50.890;4.726;2022-08-30T00:56:53;6.53;;;4.97;;
8803;SDS011;4438;50.890;4.726;2022-08-30T00:59:20;6.13;;;5.27;;
8803;SDS011;4438;50.890;4.726;2022-08-30T01:01:48;6.63;;;5.13;;
8803;SDS011;4438;50.890;4.726;2022-08-30T01:04:14;5.87;;;5.10;;
8803;SDS011;4438;50.890;4.726;2022-08-30T01:06:43;7.67;;;5.03;;
8803;SDS011;4438;50.890;4.726;2022-08-30T01:09:10;4.57;;;4.17;;
8803;SDS011;4438;50.890;4.726;2022-08-30T01:11:36;6.00;;;4.50;;
8803;SDS011;4438;50.890;4.726;2022-08-30T01:14:03;5.83;;;4.63;;
8803;SDS011;4438;50.890;4.726;2022-08-30T01:16:30;6.83;;;4.70;;
8803;SDS011;4438;50.890;4.726;2022-08-30T01:18:58;7.53;;;4.87;;
8803;SDS011;4438;50.890;4.726;2022-08-30T01:24:00;5.90;;;4.73;;
8803;SDS011;4438;50.890;4.726;2022-08-30T01:26:28;5.57;;;4.63;;
8803;SDS011;4438;50.890;4.726;2022-08-30T01:28:56;4.93;;;4.43;;
8803;SDS011;4438;50.890;4.726;2022-08-30T01:31:25;6.20;;;4.60;;
8803;SDS011;4438;50.890;4.726;2022-08-30T01:33:52;8.27;;;4.50;;
8803;SDS011;4438;50.890;4.726;2022-08-30T01:36:18;6.17;;;4.73;;
8803;SDS011;4438;50.890;4.726;2022-08-30T01:38:46;6.50;;;4.77;;
8803;SDS011;4438;50.890;4.726;2022-08-30T01:43:40;7.10;;;5.10;;
8803;SDS011;4438;50.890;4.726;2022-08-30T01:46:06;5.63;;;4.63;;
8803;SDS011;4438;50.890;4.726;2022-08-30T01:48:32;6.57;;;5.00;;
8803;SDS011;4438;50.890;4.726;2022-08-30T01:50:58;5.10;;;4.60;;
8803;SDS011;4438;50.890;4.726;2022-08-30T01:53:24;6.57;;;4.67;;
8803;SDS011;4438;50.890;4.726;2022-08-30T01:55:50;4.93;;;4.40;;
8803;SDS011;4438;50.890;4.726;2022-08-30T01:58:16;6.23;;;5.07;;
8803;SDS011;4438;50.890;4.726;2022-08-30T02:00:42;7.00;;;5.20;;
8803;SDS011;4438;50.890;4.726;2022-08-30T02:03:08;6.57;;;5.07;;
8803;SDS011;4438;50.890;4.726;2022-08-30T02:05:34;6.20;;;4.90;;
8803;SDS011;4438;50.890;4.726;2022-08-30T02:08:00;5.70;;;5.07;;
8803;SDS011;4438;50.890;4.726;2022-08-30T02:10:27;5.50;;;4.90;;
8803;SDS011;4438;50.890;4.726;2022-08-30T02:12:54;5.20;;;4.70;;
8803;SDS011;4438;50.890;4.726;2022-08-30T02:15:20;6.53;;;4.93;;
8803;SDS011;4438;50.890;4.726;2022-08-30T02:17:46;6.33;;;4.80;;
8803;SDS011;4438;50.890;4.726;2022-08-30T02:20:12;7.10;;;5.17;;
8803;SDS011;4438;50.890;4.726;2022-08-30T02:22:38;7.17;;;5.07;;
8803;SDS011;4438;50.890;4.726;2022-08-30T02:25:05;5.67;;;4.97;;
8803;SDS011;4438;50.890;4.726;2022-08-30T02:27:31;5.90;;;5.30;;
8803;SDS011;4438;50.890;4.726;2022-08-30T02:29:58;5.13;;;4.63;;
8803;SDS011;4438;50.890;4.726;2022-08-30T02:32:24;5.87;;;5.07;;
8803;SDS011;4438;50.890;4.726;2022-08-30T02:34:50;5.93;;;5.10;;
8803;SDS011;4438;50.890;4.726;2022-08-30T02:37:16;6.17;;;5.17;;
8803;SDS011;4438;50.890;4.726;2022-08-30T02:39:42;6.17;;;4.90;;
8803;SDS011;4438;50.890;4.726;2022-08-30T02:42:08;5.17;;;4.67;;
8803;SDS011;4438;50.890;4.726;2022-08-30T02:44:34;6.07;;;4.70;;
8803;SDS011;4438;50.890;4.726;2022-08-30T02:47:00;6.13;;;5.10;;
8803;SDS011;4438;50.890;4.726;2022-08-30T02:49:27;6.70;;;5.23;;
8803;SDS011;4438;50.890;4.726;2022-08-30T02:51:53;6.17;;;4.50;;
8803;SDS011;4438;50.890;4.726;2022-08-30T02:54:19;6.07;;;5.27;;
8803;SDS011;4438;50.890;4.726;2022-08-30T02:56:45;6.30;;;5.37;;
8803;SDS011;4438;50.890;4.726;2022-08-30T02:59:12;5.60;;;5.00;;
8803;SDS011;4438;50.890;4.726;2022-08-30T03:01:39;5.63;;;5.13;;
8803;SDS011;4438;50.890;4.726;2022-08-30T03:04:05;6.63;;;5.40;;
8803;SDS011;4438;50.890;4.726;2022-08-30T03:06:31;5.60;;;5.00;;
8803;SDS011;4438;50.890;4.726;2022-08-30T03:08:57;6.27;;;4.77;;
8803;SDS011;4438;50.890;4.726;2022-08-30T03:11:23;6.33;;;5.60;;
8803;SDS011;4438;50.890;4.726;2022-08-30T03:13:49;6.47;;;5.77;;
8803;SDS011;4438;50.890;4.726;2022-08-30T03:16:15;7.23;;;5.63;;
8803;SDS011;4438;50.890;4.726;2022-08-30T03:18:42;6.83;;;5.17;;
8803;SDS011;4438;50.890;4.726;2022-08-30T03:21:09;7.27;;;5.27;;
8803;SDS011;4438;50.890;4.726;2022-08-30T03:23:35;5.40;;;4.87;;
8803;SDS011;4438;50.890;4.726;2022-08-30T03:26:01;6.97;;;5.10;;
8803;SDS011;4438;50.890;4.726;2022-08-30T03:28:27;6.37;;;5.20;;
8803;SDS011;4438;50.890;4.726;2022-08-30T03:30:53;6.30;;;5.23;;
8803;SDS011;4438;50.890;4.726;2022-08-30T03:33:20;5.63;;;4.77;;
8803;SDS011;4438;50.890;4.726;2022-08-30T03:35:46;6.20;;;5.60;;
8803;SDS011;4438;50.890;4.726;2022-08-30T03:38:13;6.00;;;5.17;;
8803;SDS011;4438;50.890;4.726;2022-08-30T03:40:40;6.17;;;5.57;;
8803;SDS011;4438;50.890;4.726;2022-08-30T03:43:06;6.53;;;5.10;;
8803;SDS011;4438;50.890;4.726;2022-08-30T03:45:32;7.47;;;5.40;;
8803;SDS011;4438;50.890;4.726;2022-08-30T03:47:58;6.83;;;5.40;;
8803;SDS011;4438;50.890;4.726;2022-08-30T03:50:26;6.20;;;5.60;;
8803;SDS011;4438;50.890;4.726;2022-08-30T03:52:53;6.67;;;5.70;;
8803;SDS011;4438;50.890;4.726;2022-08-30T03:55:19;7.60;;;5.60;;
8803;SDS011;4438;50.890;4.726;2022-08-30T03:57:45;6.70;;;5.60;;
8803;SDS011;4438;50.890;4.726;2022-08-30T04:00:12;5.80;;;5.27;;
8803;SDS011;4438;50.890;4.726;2022-08-30T04:02:38;6.90;;;5.23;;
8803;SDS011;4438;50.890;4.726;2022-08-30T04:05:05;6.77;;;5.60;;
8803;SDS011;4438;50.890;4.726;2022-08-30T04:07:32;6.13;;;5.37;;
8803;SDS011;4438;50.890;4.726;2022-08-30T04:09:58;6.23;;;5.50;;
8803;SDS011;4438;50.890;4.726;2022-08-30T04:12:25;6.70;;;6.07;;
8803;SDS011;4438;50.890;4.726;2022-08-30T04:14:51;7.73;;;5.80;;
8803;SDS011;4438;50.890;4.726;2022-08-30T04:17:17;6.50;;;5.63;;
8803;SDS011;4438;50.890;4.726;2022-08-30T04:19:43;8.30;;;6.00;;
8803;SDS011;4438;50.890;4.726;2022-08-30T04:22:09;7.83;;;5.90;;
8803;SDS011;4438;50.890;4.726;2022-08-30T04:24:36;7.20;;;5.93;;
8803;SDS011;4438;50.890;4.726;2022-08-30T04:27:02;6.23;;;5.73;;
8803;SDS011;4438;50.890;4.726;2022-08-30T04:29:29;7.83;;;6.07;;
8803;SDS011;4438;50.890;4.726;2022-08-30T04:31:55;7.40;;;5.57;;
8803;SDS011;4438;50.890;4.726;2022-08-30T04:34:21;6.90;;;5.43;;
8803;SDS011;4438;50.890;4.726;2022-08-30T04:36:47;6.77;;;6.13;;
8803;SDS011;4438;50.890;4.726;2022-08-30T04:39:14;6.80;;;6.07;;
8803;SDS011;4438;50.890;4.726;2022-08-30T04:41:40;6.57;;;5.97;;
8803;SDS011;4438;50.890;4.726;2022-08-30T04:44:06;6.83;;;5.97;;
8803;SDS011;4438;50.890;4.726;2022-08-30T04:46:33;6.63;;;5.93;;
8803;SDS011;4438;50.890;4.726;2022-08-30T04:49:00;6.83;;;5.67;;
8803;SDS011;4438;50.890;4.726;2022-08-30T04:51:26;6.67;;;6.00;;
8803;SDS011;4438;50.890;4.726;2022-08-30T04:53:52;6.30;;;5.70;;
8803;SDS011;4438;50.890;4.726;2022-08-30T04:56:19;6.93;;;6.23;;
8803;SDS011;4438;50.890;4.726;2022-08-30T04:58:47;9.10;;;6.40;;
8803;SDS011;4438;50.890;4.726;2022-08-30T05:01:17;6.50;;;5.90;;
8803;SDS011;4438;50.890;4.726;2022-08-30T05:03:44;6.83;;;5.90;;
8803;SDS011;4438;50.890;4.726;2022-08-30T05:06:10;7.93;;;7.13;;
8803;SDS011;4438;50.890;4.726;2022-08-30T05:08:36;7.47;;;6.77;;
8803;SDS011;4438;50.890;4.726;2022-08-30T05:11:03;7.40;;;6.50;;
8803;SDS011;4438;50.890;4.726;2022-08-30T05:13:30;7.77;;;6.50;;
8803;SDS011;4438;50.890;4.726;2022-08-30T05:15:56;7.30;;;6.53;;
8803;SDS011;4438;50.890;4.726;2022-08-30T05:18:24;6.63;;;6.03;;
8803;SDS011;4438;50.890;4.726;2022-08-30T05:21:01;7.30;;;6.60;;
8803;SDS011;4438;50.890;4.726;2022-08-30T05:23:27;6.77;;;6.10;;
8803;SDS011;4438;50.890;4.726;2022-08-30T05:25:53;7.77;;;6.37;;
8803;SDS011;4438;50.890;4.726;2022-08-30T05:28:19;7.40;;;5.93;;
8803;SDS011;4438;50.890;4.726;2022-08-30T05:30:45;7.13;;;6.20;;
8803;SDS011;4438;50.890;4.726;2022-08-30T05:33:11;7.13;;;6.43;;
8803;SDS011;4438;50.890;4.726;2022-08-30T05:35:37;7.03;;;6.30;;
8803;SDS011;4438;50.890;4.726;2022-08-30T05:38:04;9.30;;;6.97;;
8803;SDS011;4438;50.890;4.726;2022-08-30T05:40:31;8.37;;;7.30;;
8803;SDS011;4438;50.890;4.726;2022-08-30T05:42:57;7.07;;;6.37;;
8803;SDS011;4438;50.890;4.726;2022-08-30T05:45:23;8.10;;;7.30;;
8803;SDS011;4438;50.890;4.726;2022-08-30T05:47:49;8.90;;;7.00;;
8803;SDS011;4438;50.890;4.726;2022-08-30T05:50:15;7.77;;;6.20;;
8803;SDS011;4438;50.890;4.726;2022-08-30T05:52:41;9.27;;;7.63;;
8803;SDS011;4438;50.890;4.726;2022-08-30T05:55:09;7.67;;;6.97;;
8803;SDS011;4438;50.890;4.726;2022-08-30T05:57:36;8.13;;;7.13;;
8803;SDS011;4438;50.890;4.726;2022-08-30T06:00:07;8.47;;;7.27;;
8803;SDS011;4438;50.890;4.726;2022-08-30T06:02:33;8.17;;;7.37;;
8803;SDS011;4438;50.890;4.726;2022-08-30T06:05:00;7.93;;;7.13;;
8803;SDS011;4438;50.890;4.726;2022-08-30T06:07:26;7.67;;;6.97;;
8803;SDS011;4438;50.890;4.726;2022-08-30T06:09:52;8.87;;;7.93;;
8803;SDS011;4438;50.890;4.726;2022-08-30T06:12:18;8.10;;;7.40;;
8803;SDS011;4438;50.890;4.726;2022-08-30T06:14:45;7.50;;;6.90;;
8803;SDS011;4438;50.890;4.726;2022-08-30T06:17:11;8.37;;;7.57;;
8803;SDS011;4438;50.890;4.726;2022-08-30T06:19:37;9.60;;;7.90;;
8803;SDS011;4438;50.890;4.726;2022-08-30T06:22:04;8.07;;;7.27;;
8803;SDS011;4438;50.890;4.726;2022-08-30T06:24:30;14.50;;;8.50;;
8803;SDS011;4438;50.890;4.726;2022-08-30T06:26:56;8.67;;;7.87;;
8803;SDS011;4438;50.890;4.726;2022-08-30T06:29:22;10.13;;;8.60;;
8803;SDS011;4438;50.890;4.726;2022-08-30T06:31:48;9.20;;;8.20;;
8803;SDS011;4438;50.890;4.726;2022-08-30T06:34:15;8.90;;;8.00;;
8803;SDS011;4438;50.890;4.726;2022-08-30T06:36:41;12.27;;;8.67;;
8803;SDS011;4438;50.890;4.726;2022-08-30T06:39:08;10.57;;;8.70;;
8803;SDS011;4438;50.890;4.726;2022-08-30T06:41:35;9.07;;;7.87;;
8803;SDS011;4438;50.890;4.726;2022-08-30T06:44:02;10.00;;;9.00;;
8803;SDS011;4438;50.890;4.726;2022-08-30T06:46:30;8.40;;;7.60;;
8803;SDS011;4438;50.890;4.726;2022-08-30T06:48:59;10.23;;;9.10;;
8803;SDS011;4438;50.890;4.726;2022-08-30T06:51:30;9.13;;;8.23;;
8803;SDS011;4438;50.890;4.726;2022-08-30T06:53:57;9.17;;;8.30;;
8803;SDS011;4438;50.890;4.726;2022-08-30T06:56:23;8.93;;;7.97;;
8803;SDS011;4438;50.890;4.726;2022-08-30T06:58:50;9.30;;;8.37;;
8803;SDS011;4438;50.890;4.726;2022-08-30T07:01:17;8.60;;;7.70;;
8803;SDS011;4438;50.890;4.726;2022-08-30T07:03:44;10.70;;;8.83;;
8803;SDS011;4438;50.890;4.726;2022-08-30T07:06:10;7.53;;;6.83;;
8803;SDS011;4438;50.890;4.726;2022-08-30T07:08:37;8.90;;;8.00;;
8803;SDS011;4438;50.890;4.726;2022-08-30T07:11:04;9.47;;;8.50;;
8803;SDS011;4438;50.890;4.726;2022-08-30T07:13:31;9.30;;;8.40;;
8803;SDS011;4438;50.890;4.726;2022-08-30T07:15:58;9.13;;;8.23;;
8803;SDS011;4438;50.890;4.726;2022-08-30T07:18:24;9.80;;;8.03;;
8803;SDS011;4438;50.890;4.726;2022-08-30T07:21:13;9.67;;;8.23;;
8803;SDS011;4438;50.890;4.726;2022-08-30T07:23:40;8.60;;;7.80;;
8803;SDS011;4438;50.890;4.726;2022-08-30T07:26:07;7.87;;;7.17;;
8803;SDS011;4438;50.890;4.726;2022-08-30T07:28:35;9.70;;;7.87;;
8803;SDS011;4438;50.890;4.726;2022-08-30T07:31:02;9.00;;;8.00;;
8803;SDS011;4438;50.890;4.726;2022-08-30T07:33:28;8.83;;;7.10;;
8803;SDS011;4438;50.890;4.726;2022-08-30T07:35:54;9.33;;;7.40;;
8803;SDS011;4438;50.890;4.726;2022-08-30T07:38:20;7.73;;;6.97;;
8803;SDS011;4438;50.890;4.726;2022-08-30T07:40:46;8.53;;;7.50;;
8803;SDS011;4438;50.890;4.726;2022-08-30T07:43:12;11.70;;;8.20;;
8803;SDS011;4438;50.890;4.726;2022-08-30T07:51:00;7.80;;;7.10;;
8803;SDS011;4438;50.890;4.726;2022-08-30T07:53:26;7.80;;;7.10;;
8803;SDS011;4438;50.890;4.726;2022-08-30T07:55:52;7.63;;;6.93;;
8803;SDS011;4438;50.890;4.726;2022-08-30T07:58:18;11.43;;;6.90;;
8803;SDS011;4438;50.890;4.726;2022-08-30T08:00:45;7.33;;;6.27;;
8803;SDS011;4438;50.890;4.726;2022-08-30T08:03:11;7.87;;;7.07;;
8803;SDS011;4438;50.890;4.726;2022-08-30T08:05:38;7.40;;;6.70;;
8803;SDS011;4438;50.890;4.726;2022-08-30T08:08:04;6.77;;;6.00;;
8803;SDS011;4438;50.890;4.726;2022-08-30T08:10:31;8.57;;;6.20;;
8803;SDS011;4438;50.890;4.726;2022-08-30T08:12:57;7.63;;;6.77;;
8803;SDS011;4438;50.890;4.726;2022-08-30T08:15:23;7.73;;;6.20;;
8803;SDS011;4438;50.890;4.726;2022-08-30T08:17:50;6.70;;;6.00;;
8803;SDS011;4438;50.890;4.726;2022-08-30T08:20:16;7.23;;;6.53;;
8803;SDS011;4438;50.890;4.726;2022-08-30T08:22:42;8.30;;;6.00;;
8803;SDS011;4438;50.890;4.726;2022-08-30T08:25:08;6.13;;;5.53;;
8803;SDS011;4438;50.890;4.726;2022-08-30T08:27:34;8.07;;;5.80;;
8803;SDS011;4438;50.890;4.726;2022-08-30T08:30:00;6.47;;;5.87;;
8803;SDS011;4438;50.890;4.726;2022-08-30T08:32:26;6.37;;;5.20;;
8803;SDS011;4438;50.890;4.726;2022-08-30T08:34:52;7.07;;;5.27;;
8803;SDS011;4438;50.890;4.726;2022-08-30T08:37:18;7.43;;;5.43;;
8803;SDS011;4438;50.890;4.726;2022-08-30T08:39:45;5.67;;;5.17;;
8803;SDS011;4438;50.890;4.726;2022-08-30T08:47:24;6.00;;;5.20;;
8803;SDS011;4438;50.890;4.726;2022-08-30T08:49:52;7.10;;;5.43;;
8803;SDS011;4438;50.890;4.726;2022-08-30T08:52:22;7.93;;;5.50;;
8803;SDS011;4438;50.890;4.726;2022-08-30T08:55:10;6.47;;;5.60;;
8803;SDS011;4438;50.890;4.726;2022-08-30T08:57:37;8.57;;;5.80;;
8803;SDS011;4438;50.890;4.726;2022-08-30T09:00:05;7.27;;;5.50;;
8803;SDS011;4438;50.890;4.726;2022-08-30T09:02:47;9.80;;;5.77;;
8803;SDS011;4438;50.890;4.726;2022-08-30T09:05:19;10.30;;;5.60;;
8803;SDS011;4438;50.890;4.726;2022-08-30T09:07:48;9.27;;;5.60;;
8803;SDS011;4438;50.890;4.726;2022-08-30T09:10:14;6.87;;;5.40;;
8803;SDS011;4438;50.890;4.726;2022-08-30T09:12:41;6.33;;;5.43;;
8803;SDS011;4438;50.890;4.726;2022-08-30T09:15:17;6.73;;;5.80;;
8803;SDS011;4438;50.890;4.726;2022-08-30T09:20:23;5.40;;;4.87;;
8803;SDS011;4438;50.890;4.726;2022-08-30T09:22:49;6.67;;;5.30;;
8803;SDS011;4438;50.890;4.726;2022-08-30T09:27:52;8.40;;;5.17;;
8803;SDS011;4438;50.890;4.726;2022-08-30T09:30:21;6.60;;;5.10;;
8803;SDS011;4438;50.890;4.726;2022-08-30T09:32:54;6.13;;;4.70;;
8803;SDS011;4438;50.890;4.726;2022-08-30T09:37:51;5.17;;;4.57;;
8803;SDS011;4438;50.890;4.726;2022-08-30T09:40:25;5.70;;;4.20;;
8803;SDS011;4438;50.890;4.726;2022-08-30T09:43:04;8.27;;;5.07;;
8803;SDS011;4438;50.890;4.726;2022-08-30T09:45:33;7.77;;;5.07;;
8803;SDS011;4438;50.890;4.726;2022-08-30T09:48:00;5.40;;;4.67;;
8803;SDS011;4438;50.890;4.726;2022-08-30T09:50:45;8.17;;;5.13;;
8803;SDS011;4438;50.890;4.726;2022-08-30T09:53:17;4.93;;;4.43;;
8803;SDS011;4438;50.890;4.726;2022-08-30T09:56:10;4.63;;;4.10;;
8803;SDS011;4438;50.890;4.726;2022-08-30T10:01:04;7.40;;;4.40;;
8803;SDS011;4438;50.890;4.726;2022-08-30T10:03:35;6.77;;;4.30;;
8803;SDS011;4438;50.890;4.726;2022-08-30T10:07:05;4.90;;;4.23;;
8803;SDS011;4438;50.890;4.726;2022-08-30T10:09:35;7.03;;;4.43;;
8803;SDS011;4438;50.890;4.726;2022-08-30T10:12:00;4.37;;;3.80;;
8803;SDS011;4438;50.890;4.726;2022-08-30T10:14:31;6.20;;;4.03;;
8803;SDS011;4438;50.890;4.726;2022-08-30T10:17:05;5.33;;;3.83;;
8803;SDS011;4438;50.890;4.726;2022-08-30T10:22:07;5.20;;;3.60;;
8803;SDS011;4438;50.890;4.726;2022-08-30T10:24:36;5.50;;;3.60;;
8803;SDS011;4438;50.890;4.726;2022-08-30T10:27:10;5.67;;;3.60;;
8803;SDS011;4438;50.890;4.726;2022-08-30T10:29:40;3.87;;;3.30;;
8803;SDS011;4438;50.890;4.726;2022-08-30T10:32:15;4.70;;;3.70;;
8803;SDS011;4438;50.890;4.726;2022-08-30T10:34:45;6.67;;;3.93;;
8803;SDS011;4438;50.890;4.726;2022-08-30T10:37:23;6.07;;;3.53;;
8803;SDS011;4438;50.890;4.726;2022-08-30T10:39:50;5.37;;;3.60;;
8803;SDS011;4438;50.890;4.726;2022-08-30T10:42:22;5.50;;;3.80;;
8803;SDS011;4438;50.890;4.726;2022-08-30T10:45:11;4.37;;;3.43;;
8803;SDS011;4438;50.890;4.726;2022-08-30T10:47:39;4.73;;;3.37;;
8803;SDS011;4438;50.890;4.726;2022-08-30T10:50:16;4.73;;;3.23;;
8803;SDS011;4438;50.890;4.726;2022-08-30T10:52:51;5.73;;;3.50;;
8803;SDS011;4438;50.890;4.726;2022-08-30T10:55:20;6.07;;;3.90;;
8803;SDS011;4438;50.890;4.726;2022-08-30T10:57:48;4.70;;;4.00;;
8803;SDS011;4438;50.890;4.726;2022-08-30T11:00:21;6.10;;;3.50;;
8803;SDS011;4438;50.890;4.726;2022-08-30T11:05:29;4.90;;;3.97;;
8803;SDS011;4438;50.890;4.726;2022-08-30T11:13:35;6.33;;;3.67;;
8803;SDS011;4438;50.890;4.726;2022-08-30T11:16:04;6.73;;;3.90;;
8803;SDS011;4438;50.890;4.726;2022-08-30T11:18:32;6.67;;;3.33;;
8803;SDS011;4438;50.890;4.726;2022-08-30T11:21:15;5.30;;;3.57;;
8803;SDS011;4438;50.890;4.726;2022-08-30T11:23:54;5.63;;;3.63;;
8803;SDS011;4438;50.890;4.726;2022-08-30T11:29:06;6.13;;;3.40;;
8803;SDS011;4438;50.890;4.726;2022-08-30T11:31:37;6.03;;;3.93;;
8803;SDS011;4438;50.890;4.726;2022-08-30T11:34:04;5.23;;;3.57;;
8803;SDS011;4438;50.890;4.726;2022-08-30T11:39:41;4.77;;;3.50;;
8803;SDS011;4438;50.890;4.726;2022-08-30T11:42:11;5.30;;;3.53;;
8803;SDS011;4438;50.890;4.726;2022-08-30T11:44:37;4.87;;;3.20;;
8803;SDS011;4438;50.890;4.726;2022-08-30T11:49:56;4.53;;;3.47;;
8803;SDS011;4438;50.890;4.726;2022-08-30T11:52:27;3.90;;;3.40;;
8803;SDS011;4438;50.890;4.726;2022-08-30T11:55:07;3.60;;;3.27;;
8803;SDS011;4438;50.890;4.726;2022-08-30T12:03:07;5.43;;;3.17;;
8803;SDS011;4438;50.890;4.726;2022-08-30T12:05:51;6.13;;;4.00;;
8803;SDS011;4438;50.890;4.726;2022-08-30T12:10:57;5.13;;;3.60;;
8803;SDS011;4438;50.890;4.726;2022-08-30T12:18:29;6.03;;;3.40;;
8803;SDS011;4438;50.890;4.726;2022-08-30T12:20:58;4.00;;;3.60;;
8803;SDS011;4438;50.890;4.726;2022-08-30T12:26:09;6.15;;;3.75;;
8803;SDS011;4438;50.890;4.726;2022-08-30T12:28:35;3.65;;;3.25;;
8803;SDS011;4438;50.890;4.726;2022-08-30T12:31:05;5.50;;;3.60;;
8803;SDS011;4438;50.890;4.726;2022-08-30T12:33:36;7.20;;;3.38;;
8803;SDS011;4438;50.890;4.726;2022-08-30T12:36:03;4.93;;;3.53;;
8803;SDS011;4438;50.890;4.726;2022-08-30T12:38:29;12.52;;;4.28;;
8803;SDS011;4438;50.890;4.726;2022-08-30T12:40:57;4.50;;;3.40;;
8803;SDS011;4438;50.890;4.726;2022-08-30T12:43:26;3.90;;;3.20;;
8803;SDS011;4438;50.890;4.726;2022-08-30T12:45:52;5.97;;;3.28;;
8803;SDS011;4438;50.890;4.726;2022-08-30T12:48:20;4.38;;;3.63;;
8803;SDS011;4438;50.890;4.726;2022-08-30T12:50:51;5.55;;;3.38;;
8803;SDS011;4438;50.890;4.726;2022-08-30T12:53:28;4.88;;;3.45;;
8803;SDS011;4438;50.890;4.726;2022-08-30T12:56:00;6.57;;;3.72;;
8803;SDS011;4438;50.890;4.726;2022-08-30T12:58:34;4.40;;;3.60;;
8803;SDS011;4438;50.890;4.726;2022-08-30T13:04:00;5.13;;;3.50;;
8803;SDS011;4438;50.890;4.726;2022-08-30T13:09:02;4.72;;;3.05;;
8803;SDS011;4438;50.890;4.726;2022-08-30T13:11:28;7.80;;;3.40;;
8803;SDS011;4438;50.890;4.726;2022-08-30T13:16:39;5.55;;;3.60;;
8803;SDS011;4438;50.890;4.726;2022-08-30T13:21:55;4.47;;;3.50;;
8803;SDS011;4438;50.890;4.726;2022-08-30T13:24:21;8.13;;;4.05;;
8803;SDS011;4438;50.890;4.726;2022-08-30T13:26:48;4.75;;;3.42;;
8803;SDS011;4438;50.890;4.726;2022-08-30T13:29:15;5.47;;;3.40;;
8803;SDS011;4438;50.890;4.726;2022-08-30T13:31:42;4.60;;;3.17;;
8803;SDS011;4438;50.890;4.726;2022-08-30T13:34:08;5.25;;;3.45;;
8803;SDS011;4438;50.890;4.726;2022-08-30T13:36:35;4.45;;;3.50;;
8803;SDS011;4438;50.890;4.726;2022-08-30T13:39:02;5.53;;;3.55;;
8803;SDS011;4438;50.890;4.726;2022-08-30T13:41:28;4.45;;;3.35;;
8803;SDS011;4438;50.890;4.726;2022-08-30T13:43:55;6.20;;;3.03;;
8803;SDS011;4438;50.890;4.726;2022-08-30T13:46:21;3.50;;;3.20;;
8803;SDS011;4438;50.890;4.726;2022-08-30T13:49:04;4.80;;;3.25;;
8803;SDS011;4438;50.890;4.726;2022-08-30T13:51:30;7.05;;;3.60;;
8803;SDS011;4438;50.890;4.726;2022-08-30T13:53:56;5.13;;;3.28;;
8803;SDS011;4438;50.890;4.726;2022-08-30T13:56:24;4.68;;;3.40;;
8803;SDS011;4438;50.890;4.726;2022-08-30T13:58:55;7.20;;;3.58;;
8803;SDS011;4438;50.890;4.726;2022-08-30T14:01:21;5.50;;;3.50;;
8803;SDS011;4438;50.890;4.726;2022-08-30T14:03:47;5.40;;;3.25;;
8803;SDS011;4438;50.890;4.726;2022-08-30T14:06:13;4.32;;;3.22;;
8803;SDS011;4438;50.890;4.726;2022-08-30T14:08:39;5.32;;;3.15;;
8803;SDS011;4438;50.890;4.726;2022-08-30T14:11:06;4.55;;;3.28;;
8803;SDS011;4438;50.890;4.726;2022-08-30T14:13:33;5.18;;;3.25;;
8803;SDS011;4438;50.890;4.726;2022-08-30T14:16:00;3.90;;;3.17;;
8803;SDS011;4438;50.890;4.726;2022-08-30T14:18:26;6.75;;;3.35;;
8803;SDS011;4438;50.890;4.726;2022-08-30T14:20:52;3.90;;;3.08;;
8803;SDS011;4438;50.890;4.726;2022-08-30T14:23:18;5.85;;;3.03;;
8803;SDS011;4438;50.890;4.726;2022-08-30T14:25:44;4.53;;;3.05;;
8803;SDS011;4438;50.890;4.726;2022-08-30T14:28:10;5.10;;;3.28;;
8803;SDS011;4438;50.890;4.726;2022-08-30T14:30:36;3.88;;;3.13;;
8803;SDS011;4438;50.890;4.726;2022-08-30T14:33:03;6.50;;;3.33;;
8803;SDS011;4438;50.890;4.726;2022-08-30T14:35:29;5.45;;;3.35;;
8803;SDS011;4438;50.890;4.726;2022-08-30T14:37:55;3.05;;;2.75;;
8803;SDS011;4438;50.890;4.726;2022-08-30T14:40:21;4.22;;;3.03;;
8803;SDS011;4438;50.890;4.726;2022-08-30T14:42:47;3.92;;;3.20;;
8803;SDS011;4438;50.890;4.726;2022-08-30T14:45:13;4.55;;;2.92;;
8803;SDS011;4438;50.890;4.726;2022-08-30T14:47:40;6.32;;;3.00;;
8803;SDS011;4438;50.890;4.726;2022-08-30T14:50:06;4.38;;;2.80;;
8803;SDS011;4438;50.890;4.726;2022-08-30T14:52:32;4.20;;;3.08;;
8803;SDS011;4438;50.890;4.726;2022-08-30T14:54:58;5.95;;;3.08;;
8803;SDS011;4438;50.890;4.726;2022-08-30T14:57:25;7.05;;;3.45;;
8803;SDS011;4438;50.890;4.726;2022-08-30T14:59:51;4.40;;;2.92;;
8803;SDS011;4438;50.890;4.726;2022-08-30T15:02:17;4.72;;;3.17;;
8803;SDS011;4438;50.890;4.726;2022-08-30T15:04:44;4.25;;;3.40;;
8803;SDS011;4438;50.890;4.726;2022-08-30T15:07:10;8.05;;;3.00;;
8803;SDS011;4438;50.890;4.726;2022-08-30T15:09:36;3.42;;;2.72;;
8803;SDS011;4438;50.890;4.726;2022-08-30T15:12:02;2.72;;;2.40;;
8803;SDS011;4438;50.890;4.726;2022-08-30T15:14:29;4.95;;;2.88;;
8803;SDS011;4438;50.890;4.726;2022-08-30T15:16:56;3.45;;;2.63;;
8803;SDS011;4438;50.890;4.726;2022-08-30T15:19:23;4.75;;;2.65;;
8803;SDS011;4438;50.890;4.726;2022-08-30T15:21:50;3.20;;;2.55;;
8803;SDS011;4438;50.890;4.726;2022-08-30T15:24:20;4.82;;;2.60;;
8803;SDS011;4438;50.890;4.726;2022-08-30T15:26:46;4.80;;;2.83;;
8803;SDS011;4438;50.890;4.726;2022-08-30T15:29:14;5.60;;;2.80;;
8803;SDS011;4438;50.890;4.726;2022-08-30T15:31:41;3.05;;;2.50;;
8803;SDS011;4438;50.890;4.726;2022-08-30T15:34:08;3.65;;;2.53;;
8803;SDS011;4438;50.890;4.726;2022-08-30T15:36:35;3.33;;;2.70;;
8803;SDS011;4438;50.890;4.726;2022-08-30T15:39:01;6.20;;;2.78;;
8803;SDS011;4438;50.890;4.726;2022-08-30T15:41:27;3.22;;;2.60;;
8803;SDS011;4438;50.890;4.726;2022-08-30T15:43:54;3.15;;;2.50;;
8803;SDS011;4438;50.890;4.726;2022-08-30T15:46:22;3.92;;;2.92;;
8803;SDS011;4438;50.890;4.726;2022-08-30T15:48:49;3.53;;;2.92;;
8803;SDS011;4438;50.890;4.726;2022-08-30T15:51:15;3.40;;;2.83;;
8803;SDS011;4438;50.890;4.726;2022-08-30T15:53:42;3.35;;;2.85;;
8803;SDS011;4438;50.890;4.726;2022-08-30T15:56:08;4.38;;;3.05;;
8803;SDS011;4438;50.890;4.726;2022-08-30T15:58:35;4.13;;;2.70;;
8803;SDS011;4438;50.890;4.726;2022-08-30T16:01:01;3.78;;;2.80;;
8803;SDS011;4438;50.890;4.726;2022-08-30T16:03:30;5.25;;;2.72;;
8803;SDS011;4438;50.890;4.726;2022-08-30T16:05:56;4.38;;;2.70;;
8803;SDS011;4438;50.890;4.726;2022-08-30T16:08:22;3.10;;;2.67;;
8803;SDS011;4438;50.890;4.726;2022-08-30T16:10:48;5.93;;;2.50;;
8803;SDS011;4438;50.890;4.726;2022-08-30T16:13:14;5.70;;;3.00;;
8803;SDS011;4438;50.890;4.726;2022-08-30T16:15:41;4.28;;;2.55;;
8803;SDS011;4438;50.890;4.726;2022-08-30T16:18:10;2.78;;;2.58;;
8803;SDS011;4438;50.890;4.726;2022-08-30T16:20:39;3.92;;;2.67;;
8803;SDS011;4438;50.890;4.726;2022-08-30T16:23:05;3.78;;;2.80;;
8803;SDS011;4438;50.890;4.726;2022-08-30T16:25:31;3.60;;;2.55;;
8803;SDS011;4438;50.890;4.726;2022-08-30T16:27:57;6.15;;;4.25;;
8803;SDS011;4438;50.890;4.726;2022-08-30T16:30:24;4.53;;;2.80;;